Terminal Aerodrome Forecast
Issued by NWS Denver/Boulder, CO

Home | Current Version | Previous Version | Text Only | Print | Product List | Glossary On
Versions: 1 2 3 4 5 6 7 8 9 10 11 12 13 14 15 16 17 18 19 20 21 22 23 24 25 26 27
000
FTUS45 KBOU 200530
TAFDEN
TAF
KDEN 200530Z 2006/2112 20010KT P6SM SCT220
     FM201100 25008KT P6SM FEW120 SCT200
     FM202000 04010KT P6SM FEW070 SCT120 BKN180
     FM210100 06012G18KT P6SM SCT015 BKN035 OVC050 PROB30 2103/2106
      2SM -SHSN BKN008 OVC016
     FM210600 04014G22KT 3SM -SN BR SCT008 OVC016
      TEMPO 2106/2110 1SM -SN BR OVC006
     FM211000 03012G20KT 1SM -SN BR OVC005=

USA.gov is the U.S. government's official web portal to all federal, state and local government web resources and services.